EHEH/EIN METAR and TAF weather

Enter ICAO airport designator
Station Type Date Time Source
EHEH METAR 2018/12/12 15:55 UTC NOAA

EHEH 121555Z AUTO 06004KT 030V090 9999 OVC036 04/01 Q1025 BLU 07007KT 9999 FEW025 BKN030


Station Type Date Time Source
EHEH Decoded METAR 2018/12/12 15:55 UTC NOAA

Eindhoven, Netherlands (EHEH) 51-27N 005-25E 28M
Dec 12, 2018 - 10:55 AM EST / 2018.12.12 1555 UTC
Wind: from the ENE (060 degrees) at 5 MPH (4 KT) (direction variable):0
Visibility: greater than 7 mile(s):0
Sky conditions: overcast
Temperature: 39 F (4 C)
Dew Point: 33 F (1 C)
Relative Humidity: 80%
Pressure (altimeter): 30.27 in. Hg (1025 hPa)
ob: EHEH 121555Z AUTO 06004KT 030V090 9999 OVC036 04/01 Q1025 BLU 07007KT 9999 FEW025 BKN030
cycle: 16

Station Type Date Time Source
EHEH TAF 2018/12/12 12:43 UTC NOAA

TAF EHEH 121135Z 1212/1318 07005KT 8000 SCT025 BKN045 PROB30 1302/1308 2000 BR FEW003 SCT006


Example: see airport list